createdAt,value
2023-04-13T00:00:36.915Z,38.72
2023-04-13T00:05:40.123Z,39.40
2023-04-13T00:10:43.018Z,39.77
2023-04-13T00:15:45.633Z,40.80
2023-04-13T00:20:48.311Z,41.19
2023-04-13T00:25:51.388Z,40.89
2023-04-13T00:30:55.063Z,41.40
2023-04-13T00:35:57.683Z,41.82
2023-04-13T00:41:04.244Z,41.96
2023-04-13T00:46:09.122Z,42.66
2023-04-13T00:51:13.702Z,42.78
2023-04-13T00:56:16.604Z,43.10
2023-04-13T01:01:19.930Z,43.21
2023-04-13T01:06:45.191Z,42.70
2023-04-13T01:12:17.937Z,43.48
2023-04-13T01:23:00.518Z,43.82
2023-04-13T01:28:07.552Z,43.77
2023-04-13T01:33:12.197Z,43.34
2023-04-13T01:38:15.477Z,44.74
2023-04-13T01:43:19.755Z,44.25
2023-04-13T01:48:59.137Z,44.60
2023-04-13T01:54:23.985Z,43.74
2023-04-13T01:59:26.885Z,44.37
2023-04-13T02:04:30.189Z,44.19
2023-04-13T02:09:34.784Z,45.06
2023-04-13T02:14:37.569Z,44.83
2023-04-13T02:19:40.190Z,45.88
2023-04-13T02:24:42.818Z,45.49
2023-04-13T02:29:45.423Z,45.96
2023-04-13T02:34:48.070Z,45.60
2023-04-13T02:39:51.436Z,45.74
2023-04-13T02:44:55.316Z,45.96
2023-04-13T02:49:58.931Z,45.33
2023-04-13T02:55:08.251Z,44.84
2023-04-13T03:00:23.986Z,44.92
2023-04-13T03:05:32.515Z,44.85
2023-04-13T03:10:37.784Z,44.42
2023-04-13T03:15:42.308Z,44.26
2023-04-13T03:20:47.599Z,43.44
2023-04-13T03:25:51.004Z,43.55
2023-04-13T03:30:57.566Z,43.11
2023-04-13T03:36:00.366Z,44.19
2023-04-13T03:41:08.293Z,44.72
2023-04-13T03:46:13.264Z,44.26
2023-04-13T03:51:16.919Z,43.86
2023-04-13T03:56:23.617Z,43.12
2023-04-13T04:01:27.440Z,42.99
2023-04-13T04:06:31.389Z,42.69
2023-04-13T04:11:46.555Z,42.85
2023-04-13T04:16:53.825Z,42.30
2023-04-13T04:21:58.223Z,42.01
2023-04-13T04:27:05.836Z,41.85
2023-04-13T04:32:11.101Z,41.49
2023-04-13T04:37:20.767Z,40.94
2023-04-13T04:42:37.577Z,40.61
2023-04-13T04:47:44.900Z,39.87
2023-04-13T04:52:54.942Z,40.12
2023-04-13T04:58:00.139Z,40.02
2023-04-13T05:03:03.897Z,39.58
2023-04-13T05:08:06.837Z,39.53
2023-04-13T05:13:15.357Z,39.53
2023-04-13T05:18:25.960Z,39.13
2023-04-13T05:23:30.799Z,38.78
2023-04-13T05:28:42.066Z,38.37
2023-04-13T05:33:44.777Z,38.64
2023-04-13T05:38:47.470Z,38.12
2023-04-13T05:43:53.350Z,38.07
2023-04-13T05:48:58.231Z,38.19
2023-04-13T05:54:01.980Z,37.63
2023-04-13T05:59:05.548Z,37.27
2023-04-13T06:04:09.788Z,37.25
2023-04-13T06:09:13.390Z,36.96
2023-04-13T06:14:17.879Z,36.71
2023-04-13T06:19:21.035Z,36.69
2023-04-13T06:24:24.022Z,36.31
2023-04-13T06:29:26.841Z,35.84
2023-04-13T06:34:38.679Z,35.47
2023-04-13T06:39:43.117Z,35.57
2023-04-13T06:44:46.710Z,35.34
2023-04-13T06:49:51.574Z,35.15
2023-04-13T06:54:55.902Z,35.44
2023-04-13T07:00:22.282Z,34.84
2023-04-13T07:05:32.238Z,34.00
2023-04-13T07:10:41.242Z,34.02
2023-04-13T07:15:52.463Z,33.70
2023-04-13T07:20:55.141Z,33.22
2023-04-13T07:26:02.759Z,32.65
2023-04-13T07:31:06.732Z,32.50
2023-04-13T07:36:10.605Z,31.74
2023-04-13T07:41:22.128Z,31.99
2023-04-13T07:46:28.140Z,31.84
2023-04-13T07:51:32.489Z,31.88
2023-04-13T07:56:36.460Z,31.56
2023-04-13T08:01:41.335Z,31.05
2023-04-13T08:06:44.757Z,30.66
2023-04-13T08:11:47.569Z,30.03
2023-04-13T08:16:50.595Z,29.32
2023-04-13T08:21:54.687Z,28.98
2023-04-13T08:26:58.952Z,29.63
2023-04-13T08:32:01.849Z,29.49
2023-04-13T08:37:06.029Z,29.94
2023-04-13T08:42:11.286Z,28.94
2023-04-13T08:47:14.107Z,28.41
2023-04-13T08:52:17.805Z,27.97
2023-04-13T08:57:24.564Z,27.05
2023-04-13T09:02:34.738Z,26.98
2023-04-13T09:07:43.815Z,27.44
2023-04-13T09:12:52.802Z,27.59
2023-04-13T09:17:55.765Z,27.09
2023-04-13T09:22:58.704Z,26.59
2023-04-13T09:28:01.455Z,26.42
2023-04-13T09:33:10.755Z,26.73
2023-04-13T09:38:16.365Z,25.98
2023-04-13T09:43:19.583Z,25.42
2023-04-13T09:48:23.193Z,25.18
2023-04-13T09:53:25.864Z,26.03
2023-04-13T09:58:29.020Z,25.05
2023-04-13T10:03:34.557Z,24.91
2023-04-13T10:08:39.194Z,24.48
2023-04-13T10:13:45.840Z,24.67
2023-04-13T10:19:06.506Z,24.17
2023-04-13T10:24:13.814Z,24.50
2023-04-13T10:29:30.952Z,24.50
2023-04-13T10:34:35.193Z,24.23
2023-04-13T10:39:37.879Z,24.67
2023-04-13T10:44:41.726Z,24.33
2023-04-13T10:49:48.651Z,24.72
2023-04-13T10:54:52.042Z,24.61
2023-04-13T10:59:59.396Z,23.96
2023-04-13T11:05:02.585Z,23.86
2023-04-13T11:10:07.434Z,23.62
2023-04-13T11:15:29.143Z,23.62
2023-04-13T11:20:39.742Z,23.58
2023-04-13T11:25:56.202Z,23.53
2023-04-13T11:30:58.787Z,23.58
2023-04-13T11:36:01.896Z,23.72
2023-04-13T11:46:13.760Z,23.55
2023-04-13T11:51:17.515Z,22.67
2023-04-13T11:56:20.936Z,23.07
2023-04-13T12:01:26.929Z,22.77
2023-04-13T12:06:35.042Z,22.41
2023-04-13T12:11:41.871Z,22.67
2023-04-13T12:21:56.357Z,22.75
2023-04-13T12:32:17.364Z,23.22
2023-04-13T12:37:20.141Z,22.95
2023-04-13T12:42:22.813Z,23.35
2023-04-13T12:47:26.248Z,23.22
2023-04-13T12:52:31.428Z,23.30
2023-04-13T12:57:34.099Z,23.50
2023-04-13T13:02:37.619Z,23.87
2023-04-13T13:07:40.499Z,24.12
2023-04-13T13:12:43.331Z,24.44
2023-04-13T13:17:46.018Z,24.26
2023-04-13T13:22:48.650Z,23.38
2023-04-13T13:32:56.830Z,24.45
2023-04-13T13:38:00.444Z,24.79
2023-04-13T13:43:04.423Z,24.54
2023-04-13T13:48:07.180Z,25.31
2023-04-13T13:53:24.442Z,25.11
2023-04-13T13:58:27.395Z,25.11
2023-04-13T14:03:30.469Z,25.42
2023-04-13T14:08:33.274Z,25.39
2023-04-13T14:13:35.966Z,25.73
2023-04-13T14:18:38.732Z,26.09
2023-04-13T14:23:41.866Z,26.43
2023-04-13T14:28:44.621Z,26.06
2023-04-13T14:33:47.288Z,26.55
2023-04-13T14:38:51.646Z,26.46
2023-04-13T14:43:54.384Z,26.56
2023-04-13T14:48:57.393Z,27.12
2023-04-13T14:54:00.190Z,27.72
2023-04-13T14:59:03.451Z,27.75
2023-04-13T15:04:06.912Z,28.16
2023-04-13T15:09:10.698Z,28.00
2023-04-13T15:14:13.251Z,28.50
2023-04-13T15:19:16.077Z,28.50
2023-04-13T15:24:18.841Z,28.77
2023-04-13T15:29:21.546Z,29.21
2023-04-13T15:34:24.254Z,29.33
2023-04-13T15:39:28.105Z,29.51
2023-04-13T15:44:30.728Z,30.20
2023-04-13T15:49:33.360Z,30.05
2023-04-13T15:54:36.156Z,29.93
2023-04-13T15:59:38.793Z,30.36
2023-04-13T16:04:41.712Z,30.63
2023-04-13T16:09:44.928Z,30.54
2023-04-13T16:14:47.603Z,31.04
2023-04-13T16:19:53.080Z,31.40
2023-04-13T16:24:55.796Z,31.40
2023-04-13T16:29:58.976Z,31.73
2023-04-13T16:35:02.190Z,31.71
2023-04-13T16:40:10.778Z,32.26
2023-04-13T16:45:15.266Z,32.50
2023-04-13T16:50:18.300Z,32.50
2023-04-13T16:55:21.310Z,32.61
2023-04-13T17:00:23.964Z,32.94
2023-04-13T17:05:28.528Z,33.43
2023-04-13T17:10:31.191Z,33.96
2023-04-13T17:15:33.811Z,34.04
2023-04-13T17:20:36.432Z,34.29
2023-04-13T17:25:41.659Z,34.53
2023-04-13T17:30:44.550Z,34.81
2023-04-13T17:35:47.609Z,34.96
2023-04-13T17:40:51.061Z,34.92
2023-04-13T17:45:53.809Z,35.45
2023-04-13T17:50:56.451Z,35.43
2023-04-13T17:55:59.103Z,35.80
2023-04-13T18:01:11.568Z,35.38
2023-04-13T18:06:15.544Z,35.69
2023-04-13T18:11:19.397Z,35.98
2023-04-13T18:16:22.865Z,35.99
2023-04-13T18:21:26.129Z,36.55
2023-04-13T18:26:29.753Z,36.44
2023-04-13T18:31:32.442Z,37.10
2023-04-13T18:36:35.324Z,37.17
2023-04-13T18:41:39.659Z,37.10
2023-04-13T18:46:44.545Z,37.60
2023-04-13T18:51:47.297Z,37.36
2023-04-13T18:56:49.980Z,38.38
2023-04-13T19:01:52.833Z,38.25
2023-04-13T19:06:55.757Z,39.11
2023-04-13T19:12:02.323Z,38.96
2023-04-13T19:17:05.810Z,38.84
2023-04-13T19:22:08.504Z,39.46
2023-04-13T19:27:11.159Z,39.85
2023-04-13T19:32:16.873Z,40.24
2023-04-13T19:37:19.674Z,40.22
2023-04-13T19:42:22.490Z,40.83
2023-04-13T19:47:25.177Z,40.83
2023-04-13T19:52:27.844Z,40.54
2023-04-13T19:57:30.769Z,40.61
2023-04-13T20:02:33.531Z,41.27
2023-04-13T20:07:36.262Z,40.94
2023-04-13T20:12:39.375Z,41.22
2023-04-13T20:17:42.041Z,41.13
2023-04-13T20:22:44.621Z,41.53
2023-04-13T20:27:47.266Z,41.54
2023-04-13T20:32:49.997Z,41.25
2023-04-13T20:37:52.755Z,41.06
2023-04-13T20:42:58.563Z,40.65
2023-04-13T20:53:24.949Z,41.71
2023-04-13T20:58:28.831Z,41.83
2023-04-13T21:03:32.169Z,40.76
2023-04-13T21:08:35.074Z,40.94
2023-04-13T21:13:37.733Z,39.95
2023-04-13T21:18:44.066Z,40.24
2023-04-13T21:23:51.348Z,40.29
2023-04-13T21:28:54.195Z,39.81
2023-04-13T21:33:59.223Z,39.63
2023-04-13T21:39:02.928Z,39.44
2023-04-13T21:44:19.122Z,39.69
2023-04-13T21:49:31.288Z,40.00
2023-04-13T21:54:33.886Z,39.42
2023-04-13T21:59:36.652Z,39.56
2023-04-13T22:04:39.323Z,39.62
2023-04-13T22:09:42.092Z,39.80
2023-04-13T22:14:44.788Z,39.52
2023-04-13T22:19:48.128Z,40.02
2023-04-13T22:24:52.481Z,39.54
2023-04-13T22:29:55.179Z,39.86
2023-04-13T22:34:57.864Z,40.03
2023-04-13T22:40:01.420Z,39.87
2023-04-13T22:45:05.402Z,40.11
2023-04-13T22:50:08.259Z,40.66
2023-04-13T22:55:10.897Z,41.08
2023-04-13T23:00:14.341Z,41.31
2023-04-13T23:05:17.541Z,42.11
2023-04-13T23:10:20.284Z,42.14
2023-04-13T23:15:22.955Z,42.50
2023-04-13T23:20:27.772Z,42.91
2023-04-13T23:25:31.753Z,42.79
2023-04-13T23:30:34.456Z,43.50
2023-04-13T23:35:37.114Z,43.81
2023-04-13T23:40:39.730Z,44.16
2023-04-13T23:45:42.794Z,44.67
2023-04-13T23:50:45.694Z,45.36
2023-04-13T23:55:48.360Z,45.53
